createdAt,value
2022-12-22T00:00:02.217Z,2.6
2022-12-22T00:01:02.245Z,2.6
2022-12-22T00:02:02.275Z,2.6
2022-12-22T00:03:01.808Z,2.7
2022-12-22T00:04:02.089Z,2.6
2022-12-22T00:05:01.308Z,2.6
2022-12-22T00:06:02.474Z,2.6
2022-12-22T00:07:02.297Z,2.6
2022-12-22T00:08:02.359Z,2.7
2022-12-22T00:09:05.599Z,2.6
2022-12-22T00:10:01.770Z,2.7
2022-12-22T00:11:01.833Z,2.7
2022-12-22T00:12:01.672Z,2.7
2022-12-22T00:13:01.723Z,2.6
2022-12-22T00:14:01.530Z,2.7
2022-12-22T00:15:01.473Z,2.6
2022-12-22T00:16:01.365Z,2.7
2022-12-22T00:17:01.434Z,2.6
2022-12-22T00:18:01.441Z,2.6
2022-12-22T00:19:02.379Z,2.6
2022-12-22T00:20:02.276Z,2.6
2022-12-22T00:21:01.372Z,2.7
2022-12-22T00:22:02.372Z,2.6
2022-12-22T00:23:02.207Z,2.7
2022-12-22T00:24:02.291Z,2.7
2022-12-22T00:25:02.155Z,2.6
2022-12-22T00:26:02.171Z,2.7
2022-12-22T00:27:01.950Z,2.7
2022-12-22T00:28:01.915Z,2.6
2022-12-22T00:29:01.948Z,2.5
2022-12-22T00:30:01.762Z,2.6
2022-12-22T00:31:01.697Z,2.6
2022-12-22T00:32:01.751Z,2.6
2022-12-22T00:33:01.769Z,2.6
2022-12-22T00:34:01.654Z,2.7
2022-12-22T00:35:01.679Z,2.6
2022-12-22T00:36:01.608Z,2.7
2022-12-22T00:37:01.544Z,2.6
2022-12-22T00:38:01.404Z,2.6
2022-12-22T00:39:01.430Z,2.6
2022-12-22T00:40:01.278Z,2.6
2022-12-22T00:41:02.294Z,2.6
2022-12-22T00:42:02.124Z,2.6
2022-12-22T00:43:02.170Z,2.5
2022-12-22T00:44:01.991Z,2.5
2022-12-22T00:45:01.965Z,2.6
2022-12-22T00:46:02.021Z,2.6
2022-12-22T00:47:01.999Z,2.6
2022-12-22T00:48:01.932Z,2.6
2022-12-22T00:49:01.970Z,2.6
2022-12-22T00:50:01.777Z,2.5
2022-12-22T00:51:01.676Z,2.5
2022-12-22T00:52:01.624Z,2.5
2022-12-22T00:53:01.477Z,2.5
2022-12-22T00:54:01.494Z,2.6
2022-12-22T00:55:01.333Z,2.5
2022-12-22T00:56:02.350Z,2.5
2022-12-22T00:57:02.283Z,2.5
2022-12-22T00:58:02.288Z,2.5
2022-12-22T00:59:02.091Z,2.5
2022-12-22T01:00:02.150Z,2.5
2022-12-22T01:01:01.981Z,2.4
2022-12-22T01:02:02.100Z,2.4
2022-12-22T01:03:01.577Z,2.5
2022-12-22T01:04:01.744Z,2.5
2022-12-22T01:05:01.809Z,2.4
2022-12-22T01:06:01.664Z,2.4
2022-12-22T01:07:01.691Z,2.4
2022-12-22T01:08:01.470Z,2.5
2022-12-22T01:09:01.490Z,2.4
2022-12-22T01:10:01.294Z,2.4
2022-12-22T01:11:02.339Z,2.4
2022-12-22T01:12:02.221Z,2.4
2022-12-22T01:13:02.301Z,2.4
2022-12-22T01:14:02.188Z,2.4
2022-12-22T01:15:02.209Z,2.4
2022-12-22T01:16:02.064Z,2.4
2022-12-22T01:17:02.271Z,2.4
2022-12-22T01:18:02.324Z,2.4
2022-12-22T01:19:02.180Z,2.4
2022-12-22T01:20:02.231Z,2.4
2022-12-22T01:21:02.073Z,2.4
2022-12-22T01:22:02.088Z,2.4
2022-12-22T01:23:01.932Z,2.4
2022-12-22T01:24:01.886Z,2.4
2022-12-22T01:25:01.922Z,2.3
2022-12-22T01:26:01.791Z,2.3
2022-12-22T01:27:01.670Z,2.3
2022-12-22T01:28:01.656Z,2.4
2022-12-22T01:29:01.542Z,2.4
2022-12-22T01:30:01.612Z,2.3
2022-12-22T01:31:01.484Z,2.4
2022-12-22T01:32:01.447Z,2.4
2022-12-22T01:33:01.430Z,2.4
2022-12-22T01:34:01.318Z,2.4
2022-12-22T01:35:02.494Z,2.4
2022-12-22T01:36:02.216Z,2.4
2022-12-22T01:37:02.370Z,2.3
2022-12-22T01:38:02.128Z,2.4
2022-12-22T01:39:02.180Z,2.4
2022-12-22T01:40:02.174Z,2.4
2022-12-22T01:41:02.181Z,2.4
2022-12-22T01:42:02.026Z,2.4
2022-12-22T01:43:02.168Z,2.4
2022-12-22T01:44:01.925Z,2.3
2022-12-22T01:45:01.921Z,2.4
2022-12-22T01:46:01.928Z,2.4
2022-12-22T01:47:01.591Z,2.3
2022-12-22T01:48:01.585Z,2.3
2022-12-22T01:49:01.448Z,2.3
2022-12-22T01:50:01.497Z,2.3
2022-12-22T01:51:01.399Z,2.4
2022-12-22T01:52:01.438Z,2.3
2022-12-22T01:53:02.418Z,2.3
2022-12-22T01:54:02.302Z,2.3
2022-12-22T01:55:02.303Z,2.4
2022-12-22T01:56:02.134Z,2.4
2022-12-22T01:57:02.191Z,2.3
2022-12-22T01:58:02.007Z,2.4
2022-12-22T01:59:02.077Z,2.4
2022-12-22T02:00:02.326Z,2.4
2022-12-22T02:01:01.364Z,2.4
2022-12-22T02:02:02.228Z,2.4
2022-12-22T02:03:01.707Z,2.4
2022-12-22T02:04:01.788Z,2.4
2022-12-22T02:05:01.695Z,2.3
2022-12-22T02:06:01.720Z,2.4
2022-12-22T02:07:01.595Z,2.4
2022-12-22T02:08:01.645Z,2.4
2022-12-22T02:09:01.408Z,2.5
2022-12-22T02:10:01.486Z,2.4
2022-12-22T02:11:01.401Z,2.4
2022-12-22T02:12:01.435Z,2.4
2022-12-22T02:13:02.368Z,2.4
2022-12-22T02:14:02.234Z,2.4
2022-12-22T02:15:02.284Z,2.4
2022-12-22T02:16:02.189Z,2.4
2022-12-22T02:17:02.049Z,2.4
2022-12-22T02:18:02.026Z,2.4
2022-12-22T02:19:01.930Z,2.4
2022-12-22T02:20:01.868Z,2.4
2022-12-22T02:21:01.974Z,2.4
2022-12-22T02:22:01.754Z,2.4
2022-12-22T02:23:01.742Z,2.5
2022-12-22T02:24:01.793Z,2.4
2022-12-22T02:25:01.556Z,2.4
2022-12-22T02:26:01.664Z,2.4
2022-12-22T02:27:01.416Z,2.4
2022-12-22T02:28:01.463Z,2.4
2022-12-22T02:29:02.347Z,2.4
2022-12-22T02:30:02.271Z,2.4
2022-12-22T02:31:02.278Z,2.4
2022-12-22T02:32:02.185Z,2.4
2022-12-22T02:33:07.206Z,2.5
2022-12-22T02:34:01.802Z,2.4
2022-12-22T02:35:01.870Z,2.4
2022-12-22T02:36:01.662Z,2.5
2022-12-22T02:37:01.740Z,2.4
2022-12-22T02:38:01.700Z,2.5
2022-12-22T02:39:01.727Z,2.5
2022-12-22T02:40:01.498Z,2.6
2022-12-22T02:41:01.459Z,2.6
2022-12-22T02:42:01.343Z,2.5
2022-12-22T02:43:02.347Z,2.4
2022-12-22T02:44:02.226Z,2.5
2022-12-22T02:45:02.270Z,2.5
2022-12-22T02:46:02.138Z,2.5
2022-12-22T02:47:02.164Z,2.5
2022-12-22T02:48:02.117Z,2.5
2022-12-22T02:49:02.269Z,2.5
2022-12-22T02:50:02.137Z,2.5
2022-12-22T02:51:02.154Z,2.5
2022-12-22T02:52:01.979Z,2.6
2022-12-22T02:53:02.165Z,2.5
2022-12-22T02:54:02.195Z,2.5
2022-12-22T02:55:02.090Z,2.5
2022-12-22T02:56:02.070Z,2.5
2022-12-22T02:57:02.254Z,2.6
2022-12-22T02:58:02.089Z,2.5
2022-12-22T02:59:02.149Z,2.5
2022-12-22T03:00:02.032Z,2.5
2022-12-22T03:01:01.933Z,2.5
2022-12-22T03:02:02.304Z,2.6
2022-12-22T03:03:01.879Z,2.6
2022-12-22T03:04:01.367Z,2.5
2022-12-22T03:05:02.365Z,2.5
2022-12-22T03:06:02.283Z,2.6
2022-12-22T03:07:02.405Z,2.5
2022-12-22T03:08:07.929Z,2.5
2022-12-22T03:09:01.435Z,2.5
2022-12-22T03:10:01.416Z,2.5
2022-12-22T03:11:02.432Z,2.5
2022-12-22T03:12:02.258Z,2.6
2022-12-22T03:13:02.301Z,2.6
2022-12-22T03:14:02.284Z,2.6
2022-12-22T03:15:02.217Z,2.5
2022-12-22T03:16:02.105Z,2.5
2022-12-22T03:17:02.262Z,2.5
2022-12-22T03:18:02.391Z,2.5
2022-12-22T03:19:02.213Z,2.5
2022-12-22T03:20:02.230Z,2.5
2022-12-22T03:21:02.077Z,2.6
2022-12-22T03:22:02.251Z,2.5
2022-12-22T03:23:02.148Z,2.6
2022-12-22T03:24:02.141Z,2.6
2022-12-22T03:25:01.934Z,2.6
2022-12-22T03:26:01.929Z,2.6
2022-12-22T03:27:01.895Z,2.5
2022-12-22T03:28:01.746Z,2.6
2022-12-22T03:29:01.724Z,2.6
2022-12-22T03:30:01.625Z,2.6
2022-12-22T03:31:01.638Z,2.6
2022-12-22T03:32:01.751Z,2.5
2022-12-22T03:33:01.841Z,2.5
2022-12-22T03:34:01.892Z,2.5
2022-12-22T03:35:01.743Z,2.5
2022-12-22T03:36:01.764Z,2.5
2022-12-22T03:37:01.588Z,2.6
2022-12-22T03:38:01.571Z,2.5
2022-12-22T03:39:01.391Z,2.5
2022-12-22T03:40:01.410Z,2.5
2022-12-22T03:41:02.330Z,2.5
2022-12-22T03:42:02.227Z,2.6
2022-12-22T03:43:02.205Z,2.5
2022-12-22T03:44:02.069Z,2.6
2022-12-22T03:45:02.082Z,2.6
2022-12-22T03:46:01.904Z,2.6
2022-12-22T03:47:01.844Z,2.5
2022-12-22T03:48:02.023Z,2.6
2022-12-22T03:49:01.866Z,2.6
2022-12-22T03:50:01.797Z,2.5
2022-12-22T03:51:01.837Z,2.5
2022-12-22T03:52:01.633Z,2.6
2022-12-22T03:53:01.569Z,2.5
2022-12-22T03:54:01.489Z,2.6
2022-12-22T03:55:01.588Z,2.6
2022-12-22T03:56:05.825Z,2.5
2022-12-22T03:57:01.900Z,2.5
2022-12-22T03:58:01.946Z,2.5
2022-12-22T03:59:01.779Z,2.5
2022-12-22T04:00:01.719Z,2.5
2022-12-22T04:01:01.804Z,2.5
2022-12-22T04:02:01.963Z,2.5
2022-12-22T04:03:01.575Z,2.5
2022-12-22T04:04:01.804Z,2.5
2022-12-22T04:05:01.679Z,2.4
2022-12-22T04:06:01.667Z,2.5
2022-12-22T04:07:01.520Z,2.5
2022-12-22T04:08:01.460Z,2.5
2022-12-22T04:09:01.441Z,2.5
2022-12-22T04:10:01.505Z,2.5
2022-12-22T04:11:01.431Z,2.5
2022-12-22T04:12:02.344Z,2.5
2022-12-22T04:13:02.214Z,2.5
2022-12-22T04:14:02.298Z,2.5
2022-12-22T04:15:02.138Z,2.5
2022-12-22T04:16:02.180Z,2.6
2022-12-22T04:17:02.103Z,2.5
2022-12-22T04:18:02.038Z,2.5
2022-12-22T04:19:02.035Z,2.5
2022-12-22T04:20:01.927Z,2.5
2022-12-22T04:21:01.868Z,2.5
2022-12-22T04:22:01.910Z,2.5
2022-12-22T04:23:01.765Z,2.6
2022-12-22T04:24:01.688Z,2.6
2022-12-22T04:25:01.678Z,2.6
2022-12-22T04:26:01.532Z,2.6
2022-12-22T04:27:01.517Z,2.6
2022-12-22T04:28:01.358Z,2.6
2022-12-22T04:29:02.383Z,2.6
2022-12-22T04:30:02.258Z,2.6
2022-12-22T04:31:02.323Z,2.6
2022-12-22T04:32:02.088Z,2.6
2022-12-22T04:33:02.065Z,2.6
2022-12-22T04:34:01.927Z,2.7
2022-12-22T04:35:01.885Z,2.6
2022-12-22T04:36:01.934Z,2.6
2022-12-22T04:37:10.015Z,2.6
2022-12-22T04:38:01.489Z,2.7
2022-12-22T04:39:01.491Z,2.6
2022-12-22T04:40:01.304Z,2.7
2022-12-22T04:41:02.499Z,2.7
2022-12-22T04:42:02.230Z,2.7
2022-12-22T04:43:02.337Z,2.7
2022-12-22T04:44:02.270Z,2.7
2022-12-22T04:45:02.393Z,2.7
2022-12-22T04:46:02.312Z,2.7
2022-12-22T04:47:01.400Z,2.7
2022-12-22T04:48:01.419Z,2.7
2022-12-22T04:49:02.341Z,2.8
2022-12-22T04:50:02.246Z,2.7
2022-12-22T04:51:02.212Z,2.7
2022-12-22T04:52:02.117Z,2.7
2022-12-22T04:53:02.189Z,2.7
2022-12-22T04:54:02.004Z,2.7
2022-12-22T04:55:02.062Z,2.7
2022-12-22T04:56:01.947Z,2.7
2022-12-22T04:57:01.794Z,2.7
2022-12-22T04:58:01.801Z,2.7
2022-12-22T04:59:01.637Z,2.7
2022-12-22T05:00:01.603Z,2.7
2022-12-22T05:01:01.463Z,2.7
2022-12-22T05:02:01.491Z,2.8
2022-12-22T05:03:01.798Z,2.7
2022-12-22T05:04:01.743Z,2.7
2022-12-22T05:05:01.656Z,2.7
2022-12-22T05:06:01.660Z,2.7
2022-12-22T05:07:01.550Z,2.7
2022-12-22T05:08:01.399Z,2.7
2022-12-22T05:09:01.345Z,2.7
2022-12-22T05:10:02.350Z,2.7
2022-12-22T05:11:02.277Z,2.7
2022-12-22T05:12:02.352Z,2.7
2022-12-22T05:13:02.190Z,2.7
2022-12-22T05:14:07.130Z,2.7
2022-12-22T05:15:02.251Z,2.7
2022-12-22T05:16:02.398Z,2.7
2022-12-22T05:17:02.064Z,2.7
2022-12-22T05:18:02.014Z,2.7
2022-12-22T05:19:01.857Z,2.7
2022-12-22T05:20:01.728Z,2.8
2022-12-22T05:21:01.714Z,2.8
2022-12-22T05:22:01.518Z,2.8
2022-12-22T05:23:01.540Z,2.8
2022-12-22T05:24:01.399Z,2.8
2022-12-22T05:25:02.378Z,2.8
2022-12-22T05:26:01.344Z,2.8
2022-12-22T05:27:02.410Z,2.9
2022-12-22T05:28:01.314Z,2.9
2022-12-22T05:29:02.354Z,2.9
2022-12-22T05:30:02.261Z,2.9
2022-12-22T05:31:02.366Z,2.9
2022-12-22T05:32:02.136Z,2.9
2022-12-22T05:33:02.217Z,2.9
2022-12-22T05:34:02.076Z,2.9
2022-12-22T05:35:02.139Z,2.9
2022-12-22T05:36:01.934Z,2.9
2022-12-22T05:37:01.884Z,3
2022-12-22T05:38:01.937Z,3
2022-12-22T05:39:01.736Z,3
2022-12-22T05:40:01.690Z,2.9
2022-12-22T05:41:03.798Z,3
2022-12-22T05:42:01.562Z,3
2022-12-22T05:43:01.579Z,3
2022-12-22T05:44:01.393Z,3
2022-12-22T05:45:01.398Z,3
2022-12-22T05:46:01.361Z,3
2022-12-22T05:47:01.373Z,3
2022-12-22T05:48:01.436Z,3
2022-12-22T05:49:02.342Z,3
2022-12-22T05:50:02.304Z,3
2022-12-22T05:51:02.408Z,3.1
2022-12-22T05:52:01.357Z,3.1
2022-12-22T05:53:02.401Z,3.1
2022-12-22T05:54:02.309Z,3.1
2022-12-22T05:55:01.420Z,3.1
2022-12-22T05:56:02.325Z,3.1
2022-12-22T05:57:02.368Z,3
2022-12-22T05:58:02.269Z,3
2022-12-22T05:59:02.205Z,3.1
2022-12-22T06:00:02.333Z,3
2022-12-22T06:01:02.202Z,3
2022-12-22T06:02:02.146Z,3.1
2022-12-22T06:03:02.383Z,3.1
2022-12-22T06:04:01.663Z,3.1
2022-12-22T06:05:02.138Z,3
2022-12-22T06:06:01.970Z,3
2022-12-22T06:07:01.871Z,3.1
2022-12-22T06:08:01.857Z,3.1
2022-12-22T06:09:01.843Z,3.1
2022-12-22T06:10:05.145Z,3.1
2022-12-22T06:11:01.583Z,3.1
2022-12-22T06:12:01.585Z,3.1
2022-12-22T06:13:01.396Z,3.1
2022-12-22T06:14:01.438Z,3.1
2022-12-22T06:15:02.431Z,3.1
2022-12-22T06:16:02.316Z,3.2
2022-12-22T06:17:01.403Z,3.1
2022-12-22T06:18:01.398Z,3.2
2022-12-22T06:19:02.376Z,3.2
2022-12-22T06:20:02.299Z,3.2
2022-12-22T06:21:02.393Z,3.2
2022-12-22T06:22:01.327Z,3.2
2022-12-22T06:23:02.410Z,3.2
2022-12-22T06:24:02.277Z,3.2
2022-12-22T06:25:02.357Z,3.2
2022-12-22T06:26:02.264Z,3.2
2022-12-22T06:27:02.262Z,3.2
2022-12-22T06:28:02.149Z,3.2
2022-12-22T06:29:02.187Z,3.2
2022-12-22T06:30:02.024Z,3.2
2022-12-22T06:31:02.065Z,3.1
2022-12-22T06:32:01.984Z,3.1
2022-12-22T06:33:01.897Z,3.1
2022-12-22T06:34:01.864Z,3.2
2022-12-22T06:35:01.767Z,3.1
2022-12-22T06:36:01.704Z,3.2
2022-12-22T06:37:01.759Z,3.2
2022-12-22T06:38:01.542Z,3.2
2022-12-22T06:39:01.598Z,3.2
2022-12-22T06:40:01.375Z,3.2
2022-12-22T06:41:01.407Z,3.2
2022-12-22T06:42:02.351Z,3.2
2022-12-22T06:43:06.008Z,3.2
2022-12-22T06:44:01.984Z,3.2
2022-12-22T06:45:02.050Z,3.2
2022-12-22T06:46:01.860Z,3.3
2022-12-22T06:47:01.812Z,3.2
2022-12-22T06:48:01.767Z,3.2
2022-12-22T06:49:01.586Z,3.3
2022-12-22T06:50:01.651Z,3.3
2022-12-22T06:51:01.515Z,3.3
2022-12-22T06:52:01.475Z,3.3
2022-12-22T06:53:01.318Z,3.3
2022-12-22T06:54:02.488Z,3.3
2022-12-22T06:55:02.313Z,3.4
2022-12-22T06:56:02.307Z,3.4
2022-12-22T06:57:02.159Z,3.4
2022-12-22T06:58:02.224Z,3.4
2022-12-22T06:59:02.062Z,3.4
2022-12-22T07:00:02.114Z,3.4
2022-12-22T07:01:01.956Z,3.4
2022-12-22T07:02:01.866Z,3.4
2022-12-22T07:03:02.400Z,3.4
2022-12-22T07:04:01.752Z,3.4
2022-12-22T07:05:01.788Z,3.5
2022-12-22T07:06:01.612Z,3.5
2022-12-22T07:07:01.604Z,3.5
2022-12-22T07:08:07.962Z,3.5
2022-12-22T07:09:02.047Z,3.5
2022-12-22T07:10:02.028Z,3.6
2022-12-22T07:11:01.900Z,3.6
2022-12-22T07:12:01.833Z,3.5
2022-12-22T07:13:01.776Z,3.5
2022-12-22T07:14:01.614Z,3.6
2022-12-22T07:15:01.613Z,3.5
2022-12-22T07:16:01.984Z,3.6
2022-12-22T07:17:01.338Z,3.6
2022-12-22T07:18:02.398Z,3.6
2022-12-22T07:19:02.236Z,3.6
2022-12-22T07:20:02.229Z,3.7
2022-12-22T07:21:02.033Z,3.7
2022-12-22T07:22:02.051Z,3.7
2022-12-22T07:23:01.609Z,3.7
2022-12-22T07:24:01.691Z,3.8
2022-12-22T07:25:01.402Z,3.7
2022-12-22T07:26:01.439Z,3.7
2022-12-22T07:27:02.408Z,3.8
2022-12-22T07:28:02.207Z,3.8
2022-12-22T07:29:02.268Z,3.8
2022-12-22T07:30:02.104Z,3.8
2022-12-22T07:31:02.214Z,3.8
2022-12-22T07:32:02.272Z,3.8
2022-12-22T07:33:02.102Z,3.8
2022-12-22T07:34:02.109Z,3.8
2022-12-22T07:35:05.430Z,3.8
2022-12-22T07:36:01.876Z,3.9
2022-12-22T07:37:01.857Z,3.8
2022-12-22T07:38:01.689Z,3.9
2022-12-22T07:39:01.670Z,3.9
2022-12-22T07:40:01.587Z,3.9
2022-12-22T07:41:05.127Z,3.8
2022-12-22T07:42:01.381Z,3.9
2022-12-22T07:43:01.446Z,3.9
2022-12-22T07:44:02.419Z,4
2022-12-22T07:45:01.346Z,3.9
2022-12-22T07:46:01.551Z,3.9
2022-12-22T07:47:02.361Z,4.3
2022-12-22T07:48:01.354Z,4.4
2022-12-22T07:49:01.398Z,4.5
2022-12-22T07:50:02.367Z,4.7
2022-12-22T07:51:02.254Z,4.8
2022-12-22T07:52:02.268Z,5.3
2022-12-22T07:53:02.123Z,5.5
2022-12-22T07:54:02.089Z,5.3
2022-12-22T07:55:01.930Z,5.3
2022-12-22T07:56:01.840Z,5.5
2022-12-22T07:57:01.875Z,5.4
2022-12-22T07:58:01.748Z,5.3
2022-12-22T07:59:01.634Z,5.2
2022-12-22T08:00:01.637Z,5.9
2022-12-22T08:01:01.456Z,5.9
2022-12-22T08:02:01.435Z,5.6
2022-12-22T08:03:01.934Z,5.7
2022-12-22T08:04:02.397Z,5.7
2022-12-22T08:05:01.327Z,5.7
2022-12-22T08:06:02.325Z,6.4
2022-12-22T08:07:02.207Z,7.1
2022-12-22T08:08:02.198Z,6.6
2022-12-22T08:09:02.182Z,6.8
2022-12-22T08:10:02.082Z,6.3
2022-12-22T08:11:02.080Z,5.9
2022-12-22T08:12:01.970Z,5.8
2022-12-22T08:13:02.063Z,5.6
2022-12-22T08:14:02.274Z,5.8
2022-12-22T08:15:02.327Z,5.9
2022-12-22T08:16:02.347Z,5.9
2022-12-22T08:17:02.028Z,5.6
2022-12-22T08:18:02.018Z,5.5
2022-12-22T08:19:01.920Z,5.5
2022-12-22T08:20:01.843Z,5.4
2022-12-22T08:21:01.896Z,5.4
2022-12-22T08:22:01.742Z,5.3
2022-12-22T08:23:01.793Z,5.4
2022-12-22T08:24:01.612Z,5.2
2022-12-22T08:25:01.607Z,5.2
2022-12-22T08:26:01.409Z,5.1
2022-12-22T08:27:01.470Z,5.2
2022-12-22T08:28:02.413Z,5.1
2022-12-22T08:29:02.238Z,5.2
2022-12-22T08:30:02.299Z,5.1
2022-12-22T08:31:02.134Z,5.1
2022-12-22T08:32:02.355Z,5
2022-12-22T08:33:02.358Z,5
2022-12-22T08:34:02.271Z,5.1
2022-12-22T08:35:02.305Z,5
2022-12-22T08:36:07.700Z,5
2022-12-22T08:37:02.201Z,5.1
2022-12-22T08:38:02.340Z,4.9
2022-12-22T08:39:02.175Z,5
2022-12-22T08:40:02.213Z,4.9
2022-12-22T08:41:02.039Z,4.8
2022-12-22T08:42:02.025Z,4.9
2022-12-22T08:43:01.883Z,4.9
2022-12-22T08:44:01.780Z,4.9
2022-12-22T08:45:01.770Z,5
2022-12-22T08:46:01.646Z,5.2
2022-12-22T08:47:01.739Z,5.4
2022-12-22T08:48:01.722Z,5.5
2022-12-22T08:49:01.576Z,5.9
2022-12-22T08:50:01.562Z,6
2022-12-22T08:51:01.384Z,6.2
2022-12-22T08:52:01.438Z,6.4
2022-12-22T08:53:02.321Z,6.6
2022-12-22T08:54:05.289Z,6.7
2022-12-22T08:55:01.682Z,6.6
2022-12-22T08:56:01.720Z,6.7
2022-12-22T08:57:01.502Z,6.3
2022-12-22T08:58:01.535Z,6.5
2022-12-22T08:59:01.348Z,6.4
2022-12-22T09:00:01.337Z,6.3
2022-12-22T09:01:02.306Z,6.3
2022-12-22T09:02:02.337Z,6.2
2022-12-22T09:03:01.856Z,6.4
2022-12-22T09:04:02.062Z,6.5
2022-12-22T09:05:01.991Z,6.5
2022-12-22T09:06:02.051Z,6.6
2022-12-22T09:07:01.878Z,6.4
2022-12-22T09:08:01.839Z,6.5
2022-12-22T09:09:01.829Z,6.6
2022-12-22T09:10:01.654Z,6.6
2022-12-22T09:11:01.676Z,6.5
2022-12-22T09:12:01.447Z,6.5
2022-12-22T09:13:01.480Z,7.2
2022-12-22T09:14:01.374Z,7.3
2022-12-22T09:15:02.363Z,7.5
2022-12-22T09:16:01.363Z,7.4
2022-12-22T09:17:01.409Z,8.1
2022-12-22T09:18:01.503Z,7.5
2022-12-22T09:19:01.466Z,7.4
2022-12-22T09:20:02.368Z,7.1
2022-12-22T09:21:02.176Z,7.7
2022-12-22T09:22:02.248Z,7.5
2022-12-22T09:23:02.092Z,7.7
2022-12-22T09:24:02.101Z,7.9
2022-12-22T09:25:01.910Z,7.6
2022-12-22T09:26:01.871Z,7.9
2022-12-22T09:27:01.915Z,8.1
2022-12-22T09:28:01.694Z,8
2022-12-22T09:29:01.690Z,7.8
2022-12-22T09:30:01.592Z,8.4
2022-12-22T09:31:01.434Z,8.1
2022-12-22T09:32:02.449Z,8.4
2022-12-22T09:33:01.484Z,8.6
2022-12-22T09:34:01.528Z,8.2
2022-12-22T09:35:01.347Z,8.7
2022-12-22T09:36:02.385Z,9.2
2022-12-22T09:37:02.236Z,8.8
2022-12-22T09:38:02.258Z,9.6
2022-12-22T09:39:02.146Z,9.2
2022-12-22T09:40:02.192Z,9.3
2022-12-22T09:41:01.992Z,8.4
2022-12-22T09:42:02.015Z,8.8
2022-12-22T09:43:01.816Z,9.3
2022-12-22T09:44:01.729Z,9.2
2022-12-22T09:45:01.750Z,8.6
2022-12-22T09:46:01.587Z,9.2
2022-12-22T09:47:01.552Z,9.5
2022-12-22T09:48:01.549Z,9.4
2022-12-22T09:49:01.372Z,8.9
2022-12-22T09:50:01.357Z,9
2022-12-22T09:51:02.343Z,9.1
2022-12-22T09:52:02.208Z,8.7
2022-12-22T09:53:02.251Z,9.3
2022-12-22T09:54:02.099Z,9.3
2022-12-22T09:55:02.130Z,9.8
2022-12-22T09:56:01.959Z,9.7
2022-12-22T09:57:01.924Z,9.6
2022-12-22T09:58:01.932Z,10
2022-12-22T09:59:01.776Z,9.7
2022-12-22T10:00:01.651Z,8.9
2022-12-22T10:01:01.731Z,9.6
2022-12-22T10:02:01.859Z,9.4
2022-12-22T10:03:02.313Z,8.9
2022-12-22T10:04:02.385Z,8.7
2022-12-22T10:05:01.367Z,9
2022-12-22T10:06:01.410Z,8.7
2022-12-22T10:07:02.384Z,8.8
2022-12-22T10:08:02.218Z,8.8
2022-12-22T10:09:05.151Z,9.3
2022-12-22T10:10:01.529Z,9.1
2022-12-22T10:11:01.579Z,8.8
2022-12-22T10:12:01.391Z,8.8
2022-12-22T10:13:01.401Z,9.5
2022-12-22T10:14:02.399Z,9
2022-12-22T10:15:01.351Z,9.1
2022-12-22T10:16:02.282Z,9.2
2022-12-22T10:17:02.197Z,9.1
2022-12-22T10:18:02.182Z,9
2022-12-22T10:19:02.080Z,9.7
2022-12-22T10:20:01.957Z,9.5
2022-12-22T10:21:01.792Z,9.2
2022-12-22T10:22:01.729Z,9.5
2022-12-22T10:23:01.838Z,9.1
2022-12-22T10:24:01.621Z,9.5
2022-12-22T10:25:01.687Z,10.3
2022-12-22T10:26:27.828Z,11
2022-12-22T10:27:01.376Z,10.8
2022-12-22T10:28:01.406Z,11.5
2022-12-22T10:29:02.399Z,11.2
2022-12-22T10:30:01.333Z,11.4
2022-12-22T10:31:02.387Z,11.4
2022-12-22T10:32:02.036Z,10.4
2022-12-22T10:33:02.124Z,11.6
2022-12-22T10:34:01.944Z,12.2
2022-12-22T10:35:01.914Z,11.8
2022-12-22T10:36:01.942Z,10.6
2022-12-22T10:37:01.818Z,10.6
2022-12-22T10:38:01.664Z,10.4
2022-12-22T10:39:02.188Z,10.5
2022-12-22T10:40:01.391Z,10.2
2022-12-22T10:41:02.548Z,10.2
2022-12-22T10:42:01.493Z,9.9
2022-12-22T10:43:01.510Z,9.9
2022-12-22T10:44:01.330Z,9.8
2022-12-22T10:45:02.543Z,10.7
2022-12-22T10:46:02.331Z,11.1
2022-12-22T10:47:01.580Z,10.6
2022-12-22T10:48:01.581Z,11
2022-12-22T10:49:01.404Z,11.3
2022-12-22T10:51:01.300Z,9.7
2022-12-22T10:52:02.367Z,9.3
2022-12-22T10:53:02.247Z,9.1
2022-12-22T10:54:02.293Z,8.6
2022-12-22T10:55:02.179Z,8.7
2022-12-22T10:56:02.168Z,8.7
2022-12-22T10:57:02.056Z,8.8
2022-12-22T10:58:05.510Z,8.8
2022-12-22T10:59:01.495Z,8.5
2022-12-22T11:00:01.449Z,8.3
2022-12-22T11:01:01.373Z,8.3
2022-12-22T11:02:01.687Z,7.9
2022-12-22T11:03:02.237Z,7.8
2022-12-22T11:04:01.554Z,8
2022-12-22T11:05:01.485Z,8
2022-12-22T11:06:01.438Z,7.6
2022-12-22T11:07:02.389Z,7.5
2022-12-22T11:08:01.319Z,7.4
2022-12-22T11:09:23.960Z,7.5
2022-12-22T11:10:02.134Z,7.4
2022-12-22T11:11:02.194Z,7.3
2022-12-22T11:12:01.995Z,8.3
2022-12-22T11:13:02.050Z,8.1
2022-12-22T11:14:01.865Z,8.6
2022-12-22T11:15:01.966Z,9
2022-12-22T11:16:01.912Z,8.9
2022-12-22T11:17:02.014Z,9.1
2022-12-22T11:18:02.018Z,8.7
2022-12-22T11:19:02.068Z,8.6
2022-12-22T11:20:01.856Z,8.4
2022-12-22T11:21:01.737Z,8.4
2022-12-22T11:22:01.819Z,9
2022-12-22T11:23:01.671Z,9.2
2022-12-22T11:24:01.725Z,9
2022-12-22T11:25:01.488Z,8.6
2022-12-22T11:26:01.581Z,8.7
2022-12-22T11:27:01.395Z,8.4
2022-12-22T11:28:01.459Z,9.3
2022-12-22T11:29:02.348Z,9.2
2022-12-22T11:30:02.226Z,8.5
2022-12-22T11:31:02.333Z,10.1
2022-12-22T11:32:01.380Z,9.8
2022-12-22T11:33:02.400Z,8.7
2022-12-22T11:34:02.273Z,8.5
2022-12-22T11:35:02.290Z,9.2
2022-12-22T11:36:02.162Z,8.6
2022-12-22T11:37:02.251Z,10.2
2022-12-22T11:38:02.126Z,10.3
2022-12-22T11:39:02.183Z,9.2
2022-12-22T11:40:01.999Z,9.2
2022-12-22T11:41:01.956Z,8.7
2022-12-22T11:42:01.835Z,8.1
2022-12-22T11:43:01.720Z,8.1
2022-12-22T11:44:01.793Z,8.1
2022-12-22T11:45:01.630Z,8
2022-12-22T11:46:01.701Z,8
2022-12-22T11:47:01.445Z,8.3
2022-12-22T11:48:01.465Z,8.4
2022-12-22T11:49:01.353Z,8.3
2022-12-22T11:50:57.983Z,8.2
2022-12-22T11:51:05.871Z,8.1
2022-12-22T11:52:01.320Z,7.9
2022-12-22T11:53:02.373Z,7.7
2022-12-22T11:54:07.104Z,7.6
2022-12-22T11:55:01.690Z,7.7
2022-12-22T11:56:01.670Z,7.6
2022-12-22T11:57:01.506Z,7.8
2022-12-22T11:58:01.542Z,7.8
2022-12-22T11:59:01.357Z,7.6
2022-12-22T12:00:01.482Z,7.5
2022-12-22T12:01:15.173Z,7.6
2022-12-22T12:02:01.683Z,7.5
2022-12-22T12:03:01.840Z,7.4
2022-12-22T12:04:01.916Z,7.4
2022-12-22T12:05:01.872Z,7.4
2022-12-22T12:06:01.940Z,7.4
2022-12-22T12:07:01.814Z,7.3
2022-12-22T12:08:01.735Z,7.4
2022-12-22T12:09:01.716Z,7.3
2022-12-22T12:10:01.546Z,7.3
2022-12-22T12:11:01.553Z,7.4
2022-12-22T12:12:01.395Z,7.7
2022-12-22T12:13:01.394Z,7.7
2022-12-22T12:14:02.374Z,7.8
2022-12-22T12:15:02.266Z,8
2022-12-22T12:16:02.440Z,8.1
2022-12-22T12:17:02.162Z,8.2
2022-12-22T12:18:02.211Z,8.4
2022-12-22T12:19:02.094Z,8.3
2022-12-22T12:20:02.136Z,8.4
2022-12-22T12:21:02.000Z,8.6
2022-12-22T12:22:01.897Z,8.3
2022-12-22T12:23:01.841Z,8.4
2022-12-22T12:24:01.896Z,8.6
2022-12-22T12:25:01.761Z,8.7
2022-12-22T12:26:01.817Z,8.7
2022-12-22T12:27:01.665Z,8.8
2022-12-22T12:28:01.670Z,9
2022-12-22T12:29:01.503Z,9
2022-12-22T12:30:36.047Z,8.6
2022-12-22T12:31:02.342Z,8.5
2022-12-22T12:32:01.536Z,8.4
2022-12-22T12:33:01.724Z,8.3
2022-12-22T12:34:01.511Z,8.2
2022-12-22T12:35:01.675Z,8
2022-12-22T12:36:01.509Z,8
2022-12-22T12:37:01.495Z,7.9
2022-12-22T12:38:01.351Z,7.8
2022-12-22T12:39:08.988Z,7.6
2022-12-22T12:40:01.502Z,7.6
2022-12-22T12:41:01.517Z,7.4
2022-12-22T12:42:01.411Z,7.5
2022-12-22T12:43:02.408Z,7.3
2022-12-22T12:44:02.308Z,7.3
2022-12-22T12:45:01.380Z,7.3
2022-12-22T12:46:02.521Z,7.3
2022-12-22T12:47:01.406Z,7.4
2022-12-22T12:48:01.528Z,7.2
2022-12-22T12:49:01.365Z,7.1
2022-12-22T12:50:01.392Z,7
2022-12-22T12:51:02.446Z,7.1
2022-12-22T12:52:01.321Z,7.1
2022-12-22T12:53:02.365Z,7
2022-12-22T12:54:02.229Z,7
2022-12-22T12:55:02.230Z,7
2022-12-22T12:56:02.122Z,6.9
2022-12-22T12:57:02.151Z,6.7
2022-12-22T12:58:01.956Z,6.7
2022-12-22T12:59:01.942Z,6.6
2022-12-22T13:00:01.978Z,6.6
2022-12-22T13:01:01.781Z,6.6
2022-12-22T13:02:01.982Z,6.5
2022-12-22T13:03:01.648Z,6.7
2022-12-22T13:04:04.061Z,6.6
2022-12-22T13:05:01.705Z,6.5
2022-12-22T13:06:01.663Z,6.5
2022-12-22T13:07:01.587Z,6.3
2022-12-22T13:08:01.518Z,6.4
2022-12-22T13:09:14.272Z,7
2022-12-22T13:10:02.088Z,6.8
2022-12-22T13:11:02.075Z,6.6
2022-12-22T13:12:12.016Z,6.7
2022-12-22T13:13:01.387Z,6.7
2022-12-22T13:14:01.456Z,7.4
2022-12-22T13:15:01.391Z,7.6
2022-12-22T13:16:01.699Z,6.9
2022-12-22T13:17:01.427Z,6.6
2022-12-22T13:18:01.483Z,6.6
2022-12-22T13:19:01.545Z,6.7
2022-12-22T13:20:01.459Z,7
2022-12-22T13:21:19.113Z,7
2022-12-22T13:22:01.671Z,6.6
2022-12-22T13:23:01.589Z,7
2022-12-22T13:24:24.483Z,6.6
2022-12-22T13:25:02.287Z,6.5
2022-12-22T13:26:02.272Z,6.4
2022-12-22T13:27:02.255Z,6.6
2022-12-22T13:28:02.302Z,6.7
2022-12-22T13:29:02.228Z,6.7
2022-12-22T13:30:02.255Z,6.8
2022-12-22T13:31:01.757Z,6.9
2022-12-22T13:32:02.315Z,6.9
2022-12-22T13:33:01.455Z,7.2
2022-12-22T13:34:01.334Z,6.8
2022-12-22T13:35:30.172Z,7
2022-12-22T13:36:01.721Z,7
2022-12-22T13:37:01.737Z,7.1
2022-12-22T13:38:01.666Z,6.6
2022-12-22T13:39:01.585Z,6.8
2022-12-22T13:40:01.472Z,7
2022-12-22T13:41:01.408Z,6.9
2022-12-22T13:42:01.421Z,6.7
2022-12-22T13:43:01.456Z,6.7
2022-12-22T13:44:02.355Z,6.7
2022-12-22T13:45:02.242Z,6.6
2022-12-22T13:46:02.320Z,7.9
2022-12-22T13:47:02.082Z,7.2
2022-12-22T13:48:02.201Z,7.1
2022-12-22T13:49:02.049Z,7
2022-12-22T13:50:09.507Z,6.8